Time;durP1;ratioP1;P1;durP2;ratioP2;P2;SDS_P1;SDS_P2;PMS_P1;PMS_P2;Temp;Humidity;BMP_temperature;BMP_pressure;BME280_temperature;BME280_humidity;BME280_pressure;Samples;Min_cycle;Max_cycle;Signal;HPM_P1;HPM_P2
2023/11/03 00:02:20;;;;;;;;;;;9.10;70.70;;;4.48;100.00;92848.94;4953306;28;20443;-54
2023/11/03 00:04:47;;;;;;;;;;;9.20;70.80;;;4.48;100.00;92856.84;4953535;28;19932;-45
2023/11/03 00:07:14;;;;;;;;;;;9.20;70.60;;;4.44;100.00;92864.56;4952811;28;20332;-44
2023/11/03 00:09:40;;;;;;;;;;;9.30;70.40;;;4.40;100.00;92874.13;4952901;28;20265;-44
2023/11/03 00:12:07;;;;;;;;;;;9.20;70.20;;;4.36;100.00;92887.13;4951496;28;20339;-45
2023/11/03 00:14:33;;;;;;;;;;;9.20;70.10;;;4.37;100.00;92877.34;4959232;28;19955;-45
2023/11/03 00:16:59;;;;;;;;;;;9.20;70.10;;;4.37;100.00;92880.75;4956128;28;19910;-45
2023/11/03 00:19:26;;;;;;;;;;;9.20;70.10;;;4.33;100.00;92868.47;4965789;28;19968;-47
2023/11/03 00:21:53;;;;;;;;;;;9.10;70.10;;;4.27;100.00;92873.03;4957533;28;20012;-47
2023/11/03 00:24:19;;;;;;;;;;;9.10;70.10;;;4.23;100.00;92887.88;4957731;28;19914;-46
2023/11/03 00:26:54;;;;;;;;;;;9.10;70.10;;;4.15;100.00;92891.19;4956309;28;19914;-46
2023/11/03 00:29:22;;;;;;;;;;;9.10;70.00;;;4.18;100.00;92885.31;4955915;28;20289;-44
2023/11/03 00:31:49;;;;;;;;;;;9.10;70.10;;;4.22;100.00;92885.53;4986348;28;19918;-44
2023/11/03 00:34:16;;;;;;;;;;;9.10;70.90;;;4.18;100.00;92880.84;4989837;28;19981;-45
2023/11/03 00:36:45;;;;;;;;;;;9.10;70.10;;;4.17;100.00;92886.41;4956176;28;20378;-46
2023/11/03 00:39:18;;;;;;;;;;;9.10;70.10;;;4.15;100.00;92889.31;4960121;28;19910;-46
2023/11/03 00:41:47;;;;;;;;;;;9.00;70.00;;;4.12;100.00;92891.75;4963107;28;19910;-46
2023/11/03 00:44:15;;;;;;;;;;;9.00;70.10;;;4.14;100.00;92894.91;4955662;28;19918;-44
2023/11/03 00:46:42;;;;;;;;;;;9.00;70.20;;;4.15;100.00;92889.31;4965601;28;19993;-45
2023/11/03 00:49:13;;;;;;;;;;;8.90;70.10;;;4.11;100.00;92890.97;4957266;28;19909;-44
2023/11/03 00:51:40;;;;;;;;;;;9.00;70.20;;;4.14;100.00;92884.34;4954978;28;21031;-44
2023/11/03 00:54:07;;;;;;;;;;;8.90;70.20;;;4.14;100.00;92877.22;4962290;28;19909;-49
2023/11/03 00:56:35;;;;;;;;;;;8.90;70.20;;;4.14;100.00;92882.50;4958755;28;19914;-45
2023/11/03 00:59:04;;;;;;;;;;;8.90;70.20;;;4.10;100.00;92873.59;4963482;28;19910;-46
2023/11/03 01:01:31;;;;;;;;;;;8.90;70.20;;;4.11;100.00;92866.50;4962597;28;19916;-44
2023/11/03 01:03:57;;;;;;;;;;;8.90;70.30;;;4.11;100.00;92869.13;4964847;28;19913;-45
2023/11/03 01:06:23;;;;;;;;;;;8.90;70.30;;;4.07;100.00;92862.84;4968028;28;20330;-45
2023/11/03 01:08:53;;;;;;;;;;;8.90;70.30;;;4.02;100.00;92869.00;4961490;28;19918;-49
2023/11/03 01:11:26;;;;;;;;;;;8.90;70.30;;;4.03;100.00;92864.50;4962287;28;19957;-56
2023/11/03 01:13:53;;;;;;;;;;;8.80;70.20;;;4.02;100.00;92857.69;4975678;28;20376;-45
2023/11/03 01:16:22;;;;;;;;;;;8.80;70.30;;;4.00;100.00;92855.31;4971525;28;20303;-45
2023/11/03 01:18:49;;;;;;;;;;;8.80;70.30;;;4.02;100.00;92862.94;4973108;28;19932;-45
2023/11/03 01:21:16;;;;;;;;;;;8.80;70.30;;;4.00;100.00;92862.44;4972917;28;20388;-48
2023/11/03 01:23:43;;;;;;;;;;;8.80;70.30;;;4.01;100.00;92862.19;4973944;28;20017;-45
2023/11/03 01:26:10;;;;;;;;;;;8.80;70.40;;;4.00;100.00;92852.69;4974983;28;19910;-55
2023/11/03 01:28:36;;;;;;;;;;;8.80;70.40;;;3.98;100.00;92836.41;4961347;28;19917;-52
2023/11/03 01:31:07;;;;;;;;;;;8.80;70.40;;;4.02;100.00;92840.03;4974465;28;20012;-44
2023/11/03 01:33:36;;;;;;;;;;;8.80;70.40;;;4.03;100.00;92843.44;4973217;28;20025;-46
2023/11/03 01:36:06;;;;;;;;;;;8.90;70.40;;;4.03;100.00;92843.44;4974534;28;19909;-45
2023/11/03 01:38:33;;;;;;;;;;;8.90;70.40;;;4.02;100.00;92840.03;4972692;28;20435;-45
2023/11/03 01:41:01;;;;;;;;;;;8.90;70.40;;;4.06;100.00;92841.00;4975428;28;19941;-44
2023/11/03 01:43:30;;;;;;;;;;;8.90;70.40;;;4.10;100.00;92841.19;4972992;28;19914;-44
2023/11/03 01:45:59;;;;;;;;;;;8.90;70.40;;;4.11;100.00;92846.19;4973493;28;19917;-49
2023/11/03 01:48:28;;;;;;;;;;;8.90;70.40;;;4.14;100.00;92847.47;4974838;28;19917;-47
2023/11/03 01:50:58;;;;;;;;;;;8.90;70.40;;;4.07;100.00;92845.19;4970400;28;20289;-45
2023/11/03 01:53:31;;;;;;;;;;;8.90;70.40;;;4.15;100.00;92847.16;4975579;28;19917;-45
2023/11/03 01:55:58;;;;;;;;;;;8.90;70.40;;;4.14;100.00;92844.84;4974219;28;19917;-48
2023/11/03 01:58:25;;;;;;;;;;;8.90;70.40;;;4.14;100.00;92847.47;4965000;28;19933;-45
2023/11/03 02:00:52;;;;;;;;;;;8.90;70.40;;;4.15;100.00;92841.13;4975317;28;20384;-44
2023/11/03 02:03:18;;;;;;;;;;;9.00;70.50;;;4.20;100.00;92845.50;4971733;28;20386;-46
2023/11/03 02:05:46;;;;;;;;;;;9.00;70.50;;;4.22;100.00;92846.78;4973754;28;20380;-49
2023/11/03 02:08:11;;;;;;;;;;;9.00;70.50;;;4.23;100.00;92844.91;4974640;28;19910;-44
2023/11/03 02:10:42;;;;;;;;;;;9.00;70.50;;;4.23;100.00;92845.72;4973582;28;19916;-46
2023/11/03 02:13:08;;;;;;;;;;;9.00;70.40;;;4.25;100.00;92842.78;4975184;28;20048;-45
2023/11/03 02:15:34;;;;;;;;;;;9.00;70.50;;;4.28;100.00;92842.97;4973294;28;20000;-47
2023/11/03 02:18:00;;;;;;;;;;;9.10;70.60;;;4.32;100.00;92851.06;4974696;28;20384;-44
2023/11/03 02:20:25;;;;;;;;;;;9.10;70.60;;;4.35;100.00;92853.13;4973085;28;19914;-54
2023/11/03 02:22:53;;;;;;;;;;;9.10;70.60;;;4.34;100.00;92855.00;4967551;28;19914;-45
2023/11/03 02:25:19;;;;;;;;;;;9.10;70.60;;;4.34;100.00;92856.84;4974750;28;19910;-47
2023/11/03 02:27:45;;;;;;;;;;;9.20;70.60;;;4.34;100.00;92856.84;4967140;28;19928;-49
2023/11/03 02:30:11;;;;;;;;;;;9.20;70.50;;;4.35;100.00;92853.13;4957705;28;19910;-45
2023/11/03 02:32:39;;;;;;;;;;;9.20;70.40;;;4.32;100.00;92843.94;4955482;28;20032;-45
2023/11/03 02:35:05;;;;;;;;;;;9.20;70.40;;;4.32;100.00;92843.16;4960991;28;20016;-46
2023/11/03 02:37:31;;;;;;;;;;;9.20;70.40;;;4.30;100.00;92858.50;4956909;28;19980;-50
2023/11/03 02:39:57;;;;;;;;;;;9.20;70.40;;;4.31;100.00;92854.78;4954112;28;19914;-49
2023/11/03 02:42:23;;;;;;;;;;;9.20;70.40;;;4.31;100.00;92860.84;4955160;28;19910;-45
2023/11/03 02:44:49;;;;;;;;;;;9.20;70.40;;;4.32;100.00;92859.75;4956057;28;19968;-44
2023/11/03 02:47:14;;;;;;;;;;;9.20;70.40;;;4.33;100.00;92860.56;4969813;28;19918;-47
2023/11/03 02:49:40;;;;;;;;;;;9.20;70.50;;;4.36;100.00;92865.25;4954416;28;20005;-44
2023/11/03 02:52:07;;;;;;;;;;;9.20;70.50;;;4.35;100.00;92863.69;4954288;28;19957;-44
2023/11/03 02:54:32;;;;;;;;;;;9.20;70.50;;;4.36;100.00;92867.91;4953775;28;19953;-46
2023/11/03 02:56:58;;;;;;;;;;;9.30;70.50;;;4.38;100.00;92860.47;4954080;28;19945;-48
2023/11/03 02:59:24;;;;;;;;;;;9.20;70.40;;;4.40;100.00;92864.38;4954245;28;20368;-47
2023/11/03 03:01:50;;;;;;;;;;;9.30;70.50;;;4.44;100.00;92861.16;4954764;28;20345;-44
2023/11/03 03:04:16;;;;;;;;;;;9.30;70.60;;;4.46;100.00;92857.16;4953880;28;19968;-45
2023/11/03 03:06:45;;;;;;;;;;;9.30;70.60;;;4.49;100.00;92858.44;4954582;28;20004;-47
2023/11/03 03:09:12;;;;;;;;;;;9.30;70.60;;;4.49;100.00;92864.47;4953340;28;19910;-46
2023/11/03 03:11:40;;;;;;;;;;;9.40;70.60;;;4.49;100.00;92869.75;4953346;28;19910;-48
2023/11/03 03:14:06;;;;;;;;;;;9.40;70.60;;;4.49;100.00;92875.03;4954690;28;19954;-54
2023/11/03 03:16:32;;;;;;;;;;;9.40;70.60;;;4.49;100.00;92867.13;4952347;28;19968;-44
2023/11/03 03:18:58;;;;;;;;;;;9.40;70.40;;;4.45;100.00;92870.63;4954209;28;19914;-44
2023/11/03 03:21:24;;;;;;;;;;;9.40;70.40;;;4.39;100.00;92873.34;4952880;28;19914;-46
2023/11/03 03:23:49;;;;;;;;;;;9.40;70.30;;;4.43;100.00;92876.19;4954152;28;19940;-44
2023/11/03 03:26:15;;;;;;;;;;;9.40;70.30;;;4.46;100.00;92880.09;4953553;28;19914;-43
2023/11/03 03:28:41;;;;;;;;;;;9.40;70.30;;;4.47;100.00;92874.53;4953826;28;20018;-45
2023/11/03 03:31:07;;;;;;;;;;;9.40;70.30;;;4.50;100.00;92889.75;4953660;28;19926;-48
2023/11/03 03:33:33;;;;;;;;;;;9.40;70.30;;;4.54;100.00;92892.59;4953497;28;20345;-44
2023/11/03 03:35:58;;;;;;;;;;;9.40;70.40;;;4.56;100.00;92890.44;4954266;28;20351;-49
2023/11/03 03:38:25;;;;;;;;;;;9.50;70.50;;;4.58;100.00;92897.00;4953147;28;19910;-45
2023/11/03 03:40:50;;;;;;;;;;;9.50;70.40;;;4.58;100.00;92880.41;4953695;28;19921;-45
2023/11/03 03:43:16;;;;;;;;;;;9.50;70.40;;;4.60;100.00;92894.06;4953770;28;19914;-44
2023/11/03 03:45:43;;;;;;;;;;;9.50;70.40;;;4.64;100.00;92897.69;4952900;28;19938;-46
2023/11/03 03:48:09;;;;;;;;;;;9.60;70.50;;;4.65;100.00;92901.88;4953405;28;19945;-45
2023/11/03 03:50:34;;;;;;;;;;;9.60;70.40;;;4.69;100.00;92896.81;4966396;28;19968;-44
2023/11/03 03:53:00;;;;;;;;;;;9.60;70.40;;;4.70;100.00;92891.25;4954319;28;19965;-46
2023/11/03 03:55:26;;;;;;;;;;;9.60;70.50;;;4.73;100.00;92895.94;4956596;28;19910;-46
2023/11/03 03:57:52;;;;;;;;;;;9.60;70.50;;;4.76;100.00;92890.06;4983859;28;19910;-44
2023/11/03 04:00:18;;;;;;;;;;;9.60;70.50;;;4.79;100.00;92900.00;4953524;28;19916;-45
2023/11/03 04:02:45;;;;;;;;;;;9.70;70.50;;;4.81;100.00;92894.47;4953745;28;19914;-45
2023/11/03 04:05:11;;;;;;;;;;;9.70;70.60;;;4.83;100.00;92897.59;4953627;28;20333;-46
2023/11/03 04:07:39;;;;;;;;;;;9.70;70.60;;;4.87;100.00;92895.94;4952972;28;28330;-46
2023/11/03 04:10:06;;;;;;;;;;;9.70;70.60;;;4.89;100.00;92899.06;4951966;28;19914;-49
2023/11/03 04:12:32;;;;;;;;;;;9.70;70.60;;;4.88;100.00;92889.56;4956861;28;19910;-44
2023/11/03 04:14:58;;;;;;;;;;;9.80;70.60;;;4.88;100.00;92895.63;4952634;28;19973;-43
2023/11/03 04:17:23;;;;;;;;;;;9.80;70.60;;;4.91;100.00;92888.22;4953348;28;20336;-46
2023/11/03 04:19:49;;;;;;;;;;;9.80;70.50;;;4.90;100.00;92897.22;4952717;28;20001;-48
2023/11/03 04:22:15;;;;;;;;;;;9.80;70.60;;;4.92;100.00;92900.31;4952454;28;20324;-45
2023/11/03 04:24:41;;;;;;;;;;;9.80;70.50;;;4.81;100.00;92903.16;4953398;28;19914;-46
2023/11/03 04:27:07;;;;;;;;;;;9.80;70.40;;;4.77;100.00;92904.81;4983361;28;19910;-44
2023/11/03 04:29:32;;;;;;;;;;;9.80;70.40;;;4.85;100.00;92909.41;4974643;28;19916;-46
2023/11/03 04:31:58;;;;;;;;;;;9.80;70.50;;;4.90;100.00;92905.91;4953010;28;20385;-45
2023/11/03 04:34:24;;;;;;;;;;;9.80;70.60;;;4.93;100.00;92913.22;4952072;28;20378;-43
2023/11/03 04:36:53;;;;;;;;;;;9.80;70.60;;;4.95;100.00;92918.19;4953169;28;19960;-43
2023/11/03 04:39:18;;;;;;;;;;;9.80;70.60;;;4.97;100.00;92926.59;4951983;28;19996;-51
2023/11/03 04:41:44;;;;;;;;;;;9.80;70.60;;;5.00;100.00;92926.03;4953134;28;19980;-44
2023/11/03 04:44:10;;;;;;;;;;;9.80;70.60;;;4.98;100.00;92928.16;4952942;28;20017;-43
2023/11/03 04:46:38;;;;;;;;;;;9.80;70.50;;;4.97;100.00;92926.59;4952395;28;19910;-45
2023/11/03 04:49:05;;;;;;;;;;;9.90;70.50;;;4.98;100.00;92936.06;4952839;28;20003;-45
2023/11/03 04:51:31;;;;;;;;;;;9.90;70.40;;;4.91;100.00;92936.47;4952377;28;19922;-50
2023/11/03 04:53:57;;;;;;;;;;;9.90;70.40;;;4.90;100.00;92928.84;4953238;28;19956;-45
2023/11/03 04:56:23;;;;;;;;;;;9.80;70.30;;;4.90;100.00;92923.59;4952157;28;20399;-46
2023/11/03 04:58:50;;;;;;;;;;;9.80;70.30;;;4.89;100.00;92936.00;4952482;28;19921;-44
2023/11/03 05:01:18;;;;;;;;;;;9.80;70.30;;;4.90;100.00;92937.56;4953041;28;20364;-47
2023/11/03 05:03:44;;;;;;;;;;;9.80;70.40;;;4.88;100.00;92926.50;4952052;28;20268;-47
2023/11/03 05:06:11;;;;;;;;;;;9.80;70.40;;;4.86;100.00;92924.16;4952778;28;19910;-44
2023/11/03 05:08:36;;;;;;;;;;;9.80;70.40;;;4.88;100.00;92927.28;4954182;28;20426;-49
2023/11/03 05:11:02;;;;;;;;;;;9.70;70.40;;;4.89;100.00;92928.09;4971537;28;19910;-44
2023/11/03 05:13:28;;;;;;;;;;;9.70;70.30;;;4.88;100.00;92921.22;4986857;28;20012;-44
2023/11/03 05:15:54;;;;;;;;;;;9.80;70.40;;;4.88;100.00;92932.56;4970494;28;19989;-47
2023/11/03 05:18:20;;;;;;;;;;;9.80;70.50;;;4.83;100.00;92931.88;4967326;28;19913;-48
2023/11/03 05:20:46;;;;;;;;;;;9.70;70.40;;;4.82;100.00;92935.59;4969760;28;19909;-44
2023/11/03 05:23:11;;;;;;;;;;;9.70;70.30;;;4.83;100.00;92937.94;4966232;28;19961;-45
2023/11/03 05:25:38;;;;;;;;;;;9.70;70.30;;;4.81;100.00;92939.31;4970491;28;19955;-44
2023/11/03 05:28:04;;;;;;;;;;;9.70;70.30;;;4.79;100.00;92944.06;4970317;28;19914;-45
2023/11/03 05:30:30;;;;;;;;;;;9.70;70.30;;;4.72;100.00;92944.47;4961090;28;19925;-45
2023/11/03 05:32:55;;;;;;;;;;;9.70;71.20;;;4.76;100.00;92950.72;4965093;28;19929;-49
2023/11/03 05:35:21;;;;;;;;;;;9.70;70.30;;;4.78;100.00;92956.50;4970096;28;20281;-50
2023/11/03 05:37:47;;;;;;;;;;;9.70;70.40;;;4.78;100.00;92959.13;4979459;28;19917;-50
2023/11/03 05:40:14;;;;;;;;;;;9.60;70.40;;;4.74;100.00;92957.38;4970204;28;19909;-54
2023/11/03 05:42:40;;;;;;;;;;;9.70;70.40;;;4.78;100.00;92955.72;4975013;28;19955;-50
2023/11/03 05:45:07;;;;;;;;;;;9.60;70.40;;;4.78;100.00;92956.50;4973683;28;19978;-50
2023/11/03 05:47:32;;;;;;;;;;;9.60;70.50;;;4.77;100.00;92973.41;4975478;28;19910;-54
2023/11/03 05:49:58;;;;;;;;;;;9.60;70.50;;;4.78;100.00;92966.25;4988260;28;19932;-51
2023/11/03 05:52:24;;;;;;;;;;;9.60;70.50;;;4.79;100.00;92970.44;4972805;28;19910;-52
2023/11/03 05:54:50;;;;;;;;;;;9.60;70.50;;;4.78;100.00;92969.69;4974971;28;19917;-51
2023/11/03 05:57:16;;;;;;;;;;;9.70;70.60;;;4.79;100.00;92973.09;4973379;28;19909;-52
2023/11/03 05:59:42;;;;;;;;;;;9.60;70.50;;;4.78;100.00;92974.16;4969404;28;20280;-49
2023/11/03 06:02:08;;;;;;;;;;;9.60;70.50;;;4.76;100.00;92979.72;4974255;28;19916;-50
2023/11/03 06:04:35;;;;;;;;;;;9.60;71.00;;;4.78;100.00;92974.94;4965991;28;19914;-51
2023/11/03 06:07:06;;;;;;;;;;;9.60;70.50;;;4.72;100.00;92962.94;4967906;28;20308;-49
2023/11/03 06:09:33;;;;;;;;;;;9.60;70.50;;;4.60;100.00;92973.16;4969576;28;19916;-52
2023/11/03 06:12:00;;;;;;;;;;;9.60;70.40;;;4.63;100.00;92975.22;4974380;28;20262;-53
2023/11/03 06:14:27;;;;;;;;;;;9.50;70.50;;;4.64;100.00;92985.50;4972840;28;19945;-51
2023/11/03 06:16:53;;;;;;;;;;;9.50;70.50;;;4.67;100.00;92991.22;4967795;28;19921;-49
2023/11/03 06:19:19;;;;;;;;;;;9.50;70.50;;;4.68;100.00;92993.59;4974577;28;19909;-46
2023/11/03 06:21:44;;;;;;;;;;;9.50;70.60;;;4.67;100.00;92999.94;4962881;28;19952;-55
2023/11/03 06:24:10;;;;;;;;;;;9.50;70.60;;;4.69;100.00;93004.94;4974714;28;19971;-51
2023/11/03 06:26:36;;;;;;;;;;;9.50;70.60;;;4.70;100.00;93009.13;4971540;28;19909;-51
2023/11/03 06:29:02;;;;;;;;;;;9.50;70.70;;;4.69;100.00;93018.88;4962064;28;19910;-51
2023/11/03 06:31:31;;;;;;;;;;;9.50;70.60;;;4.69;100.00;93016.25;4958596;28;19928;-54
2023/11/03 06:33:57;;;;;;;;;;;9.50;70.60;;;4.64;100.00;93011.09;4953802;28;19960;-48
2023/11/03 06:36:22;;;;;;;;;;;9.60;70.70;;;4.69;100.00;93012.84;4952021;28;19942;-53
2023/11/03 06:38:48;;;;;;;;;;;9.50;70.60;;;4.70;100.00;93017.84;4959295;28;19917;-50
2023/11/03 06:41:14;;;;;;;;;;;9.50;70.50;;;4.71;100.00;93022.03;4957498;28;19972;-55
2023/11/03 06:43:41;;;;;;;;;;;9.50;70.60;;;4.73;100.00;93021.72;4973135;28;19922;-55
2023/11/03 06:46:10;;;;;;;;;;;9.60;70.60;;;4.73;100.00;93019.91;4967990;28;20389;-48
2023/11/03 06:48:37;;;;;;;;;;;9.60;70.60;;;4.74;100.00;93021.44;4968855;28;19917;-47
2023/11/03 06:51:12;;;;;;;;;;;9.60;70.60;;;4.78;100.00;93027.69;4966543;28;20353;-44
2023/11/03 06:53:38;;;;;;;;;;;9.60;70.60;;;4.78;100.00;93040.09;4969398;28;19956;-47
2023/11/03 06:56:05;;;;;;;;;;;9.60;70.60;;;4.79;100.00;93031.13;4973355;28;19945;-46
2023/11/03 06:58:33;;;;;;;;;;;9.60;71.30;;;4.75;100.00;93038.06;4964371;28;19910;-44
2023/11/03 07:00:59;;;;;;;;;;;9.70;70.60;;;4.77;100.00;93047.25;4967412;28;20292;-47
2023/11/03 07:03:25;;;;;;;;;;;9.70;70.60;;;4.74;100.00;93041.78;4968423;28;20390;-44
2023/11/03 07:05:52;;;;;;;;;;;9.70;70.60;;;4.67;100.00;93049.25;4973662;28;19964;-44
2023/11/03 07:08:18;;;;;;;;;;;9.70;70.60;;;4.69;100.00;93050.53;4964493;28;19914;-51
2023/11/03 07:10:44;;;;;;;;;;;9.70;70.40;;;4.69;100.00;93049.75;4965589;28;19910;-43
2023/11/03 07:13:11;;;;;;;;;;;9.60;70.50;;;4.73;100.00;93053.38;4973444;28;19917;-45
2023/11/03 07:15:37;;;;;;;;;;;9.60;70.50;;;4.77;100.00;93059.66;4964148;28;20280;-45
2023/11/03 07:18:03;;;;;;;;;;;9.70;70.60;;;4.74;100.00;93057.59;4973539;28;19913;-47
2023/11/03 07:20:30;;;;;;;;;;;9.70;70.70;;;4.76;100.00;93058.06;4971832;28;20376;-47
2023/11/03 07:22:56;;;;;;;;;;;9.70;70.60;;;4.76;100.00;93056.22;4972831;28;19941;-47
2023/11/03 07:25:25;;;;;;;;;;;9.70;70.70;;;4.76;100.00;93058.84;4973259;28;20459;-49
2023/11/03 07:27:51;;;;;;;;;;;9.70;70.60;;;4.78;100.00;93063.84;4963769;28;19917;-43
2023/11/03 07:30:17;;;;;;;;;;;9.70;70.60;;;4.76;100.00;93068.63;4969695;28;20387;-46
2023/11/03 07:32:44;;;;;;;;;;;9.70;70.60;;;4.72;100.00;93062.34;4967935;28;19910;-46
2023/11/03 07:35:11;;;;;;;;;;;9.70;70.60;;;4.74;100.00;93068.13;4968424;28;19910;-45
2023/11/03 07:37:37;;;;;;;;;;;9.70;70.60;;;4.77;100.00;93073.63;4966727;28;20388;-45
2023/11/03 07:40:05;;;;;;;;;;;9.80;70.60;;;4.83;100.00;93074.31;4964177;28;19910;-47
2023/11/03 07:42:31;;;;;;;;;;;9.80;70.60;;;4.86;100.00;93074.53;4973241;28;19910;-46
2023/11/03 07:44:57;;;;;;;;;;;9.80;70.60;;;4.86;100.00;93081.66;4969522;28;19969;-48
2023/11/03 07:47:23;;;;;;;;;;;9.80;70.60;;;4.91;100.00;93086.84;4973041;28;20658;-48
2023/11/03 07:49:50;;;;;;;;;;;9.90;70.60;;;4.96;100.00;93085.97;4972874;28;20349;-47
2023/11/03 07:52:17;;;;;;;;;;;9.90;71.40;;;4.96;100.00;93085.97;4965585;28;20414;-44
2023/11/03 07:54:43;;;;;;;;;;;10.00;70.60;;;5.00;100.00;93086.97;4972648;28;19963;-49
2023/11/03 07:57:09;;;;;;;;;;;10.00;70.60;;;5.02;100.00;93090.09;4965513;28;19916;-44
2023/11/03 07:59:35;;;;;;;;;;;10.00;70.50;;;5.01;100.00;93093.78;4965691;28;20004;-48
2023/11/03 08:02:03;;;;;;;;;;;10.10;70.60;;;5.02;100.00;93093.50;4972217;28;20012;-48
2023/11/03 08:04:29;;;;;;;;;;;10.10;70.50;;;5.07;100.00;93095.28;4970538;28;19960;-45
2023/11/03 08:06:55;;;;;;;;;;;10.10;70.50;;;5.03;100.00;93102.22;4972388;28;20385;-45
2023/11/03 08:09:21;;;;;;;;;;;10.10;70.40;;;5.04;100.00;93101.13;4967426;28;19956;-46
2023/11/03 08:11:47;;;;;;;;;;;10.10;70.40;;;5.04;100.00;93098.50;4971002;28;19914;-45
2023/11/03 08:14:13;;;;;;;;;;;10.10;70.40;;;5.00;100.00;93106.19;4972359;28;19909;-49
2023/11/03 08:16:44;;;;;;;;;;;10.20;70.40;;;5.08;100.00;93110.03;4970002;28;19955;-49
2023/11/03 08:19:11;;;;;;;;;;;10.20;70.40;;;5.11;100.00;93109.47;4972462;28;19910;-46
2023/11/03 08:21:41;;;;;;;;;;;10.30;70.50;;;5.17;100.00;93113.59;4962162;28;19910;-49
2023/11/03 08:24:10;;;;;;;;;;;10.30;70.40;;;5.21;100.00;93113.78;4971918;28;19913;-46
2023/11/03 08:26:36;;;;;;;;;;;10.30;70.30;;;5.29;100.00;93110.47;4970177;28;19916;-50
2023/11/03 08:29:03;;;;;;;;;;;10.40;70.40;;;5.16;100.00;93122.56;4964503;28;19910;-45
2023/11/03 08:31:30;;;;;;;;;;;10.40;70.30;;;5.29;100.00;93129.72;4984104;28;19964;-45
2023/11/03 08:33:56;;;;;;;;;;;10.40;70.20;;;5.36;100.00;93133.84;4962308;28;19921;-45
2023/11/03 08:36:22;;;;;;;;;;;10.50;70.30;;;5.42;100.00;93130.03;4964912;28;19914;-47
2023/11/03 08:38:51;;;;;;;;;;;10.50;70.30;;;5.41;100.00;93144.31;4960211;28;19914;-47
2023/11/03 08:41:19;;;;;;;;;;;10.60;70.30;;;5.32;100.00;93138.91;4968460;28;19997;-46
2023/11/03 08:43:46;;;;;;;;;;;10.60;70.10;;;5.38;100.00;93140.41;4972011;28;20384;-45
2023/11/03 08:46:15;;;;;;;;;;;10.60;70.10;;;5.38;100.00;93139.63;4965003;28;20008;-46
2023/11/03 08:48:45;;;;;;;;;;;10.60;70.10;;;5.44;100.00;93149.78;4971390;28;19918;-45
2023/11/03 08:51:11;;;;;;;;;;;10.60;70.00;;;5.40;100.00;93148.03;4964657;28;19941;-51
2023/11/03 08:53:38;;;;;;;;;;;10.60;70.00;;;5.38;100.00;93155.47;4972158;28;19910;-55
2023/11/03 08:56:04;;;;;;;;;;;10.60;69.90;;;5.48;100.00;93157.91;4972113;28;19933;-56
2023/11/03 08:58:30;;;;;;;;;;;10.70;69.80;;;5.55;100.00;93156.47;4962067;28;19910;-54
2023/11/03 09:00:56;;;;;;;;;;;10.80;69.80;;;5.56;100.00;93160.66;4966772;28;19941;-55
2023/11/03 09:03:22;;;;;;;;;;;10.80;69.80;;;5.60;100.00;93163.50;4958837;28;19967;-54
2023/11/03 09:05:48;;;;;;;;;;;10.90;69.80;;;5.67;100.00;93163.13;4971966;28;19913;-52
2023/11/03 09:08:15;;;;;;;;;;;10.90;69.60;;;5.66;100.00;93164.97;4971697;28;20419;-51
2023/11/03 09:10:41;;;;;;;;;;;11.00;69.60;;;5.57;100.00;93172.00;4959485;28;20312;-55
2023/11/03 09:13:07;;;;;;;;;;;11.10;69.50;;;5.56;100.00;93173.09;4972034;28;19917;-54
2023/11/03 09:15:33;;;;;;;;;;;11.10;69.20;;;5.60;100.00;93171.44;4965118;28;19910;-54
2023/11/03 09:17:59;;;;;;;;;;;11.10;69.00;;;5.73;100.00;93169.88;4975610;28;19910;-56
2023/11/03 09:20:25;;;;;;;;;;;11.20;69.00;;;5.82;100.00;93175.28;4973991;28;19968;-55
2023/11/03 09:22:51;;;;;;;;;;;11.30;69.00;;;5.74;100.00;93169.59;4968653;28;19917;-53
2023/11/03 09:25:18;;;;;;;;;;;11.30;68.90;;;5.81;100.00;93174.50;4975616;28;20397;-54
2023/11/03 09:27:43;;;;;;;;;;;11.40;68.80;;;5.88;100.00;93174.09;4970925;28;20292;-54
2023/11/03 09:30:14;;;;;;;;;;;11.40;68.80;;;5.94;100.00;93178.25;4968195;28;19910;-55
2023/11/03 09:32:43;;;;;;;;;;;11.40;68.70;;;6.01;100.00;93171.47;4972055;28;21071;-53
2023/11/03 09:35:09;;;;;;;;;;;11.40;68.70;;;6.09;100.00;93169.25;4970954;28;20368;-55
2023/11/03 09:37:35;;;;;;;;;;;11.50;68.70;;;6.13;100.00;93170.22;4973716;28;19924;-54
2023/11/03 09:40:02;;;;;;;;;;;11.60;68.80;;;6.15;100.00;93174.13;4971619;28;19941;-53
2023/11/03 09:42:29;;;;;;;;;;;11.70;68.60;;;6.38;100.00;93176.84;4975558;28;20093;-52
2023/11/03 09:44:57;;;;;;;;;;;11.80;68.70;;;6.53;100.00;93175.75;4968286;28;19918;-51
2023/11/03 09:47:25;;;;;;;;;;;12.00;68.90;;;6.47;100.00;93181.13;4972659;28;19921;-53
2023/11/03 09:49:58;;;;;;;;;;;12.10;68.60;;;6.55;100.00;93178.84;4957867;28;19910;-51
2023/11/03 09:52:24;;;;;;;;;;;12.20;68.30;;;6.44;100.00;93179.09;4965150;28;19984;-55
2023/11/03 09:54:51;;;;;;;;;;;12.30;67.80;;;6.41;100.00;93171.75;4975389;28;19955;-52
2023/11/03 09:57:18;;;;;;;;;;;12.30;67.40;;;6.50;100.00;93182.41;4972952;28;19956;-52
2023/11/03 09:59:44;;;;;;;;;;;12.40;67.20;;;6.55;100.00;93178.84;4954486;28;19910;-55
2023/11/03 10:02:19;;;;;;;;;;;12.40;67.00;;;6.54;100.00;93179.94;4955848;28;19918;-55
2023/11/03 10:04:45;;;;;;;;;;;12.40;66.80;;;6.54;100.00;93177.31;4960137;28;20005;-54
2023/11/03 10:07:13;;;;;;;;;;;12.40;66.80;;;6.57;100.00;93174.84;4970482;28;20017;-54
2023/11/03 10:09:44;;;;;;;;;;;12.40;66.70;;;6.54;100.00;93179.94;4966114;28;19914;-55
2023/11/03 10:12:17;;;;;;;;;;;12.40;66.60;;;6.53;100.00;93176.53;4974974;28;19964;-52
2023/11/03 10:14:47;;;;;;;;;;;12.40;66.50;;;6.64;100.00;93179.72;4970648;28;20284;-53
2023/11/03 10:17:14;;;;;;;;;;;12.40;66.50;;;6.73;100.00;93184.00;4970584;28;19945;-54
2023/11/03 10:19:41;;;;;;;;;;;12.40;66.50;;;6.67;100.00;93173.84;4973214;28;19925;-53
2023/11/03 10:22:08;;;;;;;;;;;12.50;66.40;;;6.56;100.00;93175.94;4970614;28;19972;-52
2023/11/03 10:24:39;;;;;;;;;;;12.50;66.00;;;6.64;100.00;93177.06;4974653;28;20012;-52
2023/11/03 10:27:06;;;;;;;;;;;12.60;65.80;;;6.75;100.00;93178.44;4959769;28;19924;-50
2023/11/03 10:29:33;;;;;;;;;;;12.60;65.80;;;6.75;100.00;93180.28;4960967;28;19918;-52
2023/11/03 10:31:59;;;;;;;;;;;12.60;65.80;;;6.73;100.00;93176.06;4968469;28;19945;-49
2023/11/03 10:34:25;;;;;;;;;;;12.60;65.60;;;6.78;100.00;93171.75;4966282;28;19922;-50
2023/11/03 10:36:55;;;;;;;;;;;12.50;65.50;;;6.62;100.00;93168.69;4974653;28;19976;-49
2023/11/03 10:39:21;;;;;;;;;;;12.50;65.40;;;6.73;100.00;93168.13;4970264;28;19909;-50
2023/11/03 10:41:48;;;;;;;;;;;12.40;65.40;;;6.76;100.00;93160.69;4974557;28;19910;-52
2023/11/03 10:44:19;;;;;;;;;;;12.30;65.50;;;6.72;100.00;93160.50;4975989;28;19920;-54
2023/11/03 10:46:58;;;;;;;;;;;12.30;65.60;;;6.65;100.00;93158.28;4958046;28;19909;-55
2023/11/03 10:49:35;;;;;;;;;;;12.20;65.60;;;6.51;100.00;93162.03;4968536;28;19955;-51
2023/11/03 10:52:13;;;;;;;;;;;12.10;65.50;;;6.53;100.00;93159.88;4965325;28;19913;-52
2023/11/03 10:55:18;;;;;;;;;;;12.10;65.50;;;6.55;100.00;93160.34;4971293;28;19964;-53
2023/11/03 10:57:45;;;;;;;;;;;12.20;65.40;;;6.65;100.00;93153.00;4969774;28;19920;-55
2023/11/03 11:00:34;;;;;;;;;;;12.20;65.30;;;6.76;100.00;93150.88;4968265;28;19941;-52
2023/11/03 11:03:29;;;;;;;;;;;12.30;66.20;;;6.92;100.00;93144.16;4964121;28;20400;-55
2023/11/03 11:06:05;;;;;;;;;;;12.40;65.40;;;6.90;100.00;93140.25;4973099;28;20331;-55
2023/11/03 11:08:34;;;;;;;;;;;12.60;65.30;;;6.89;99.22;93136.03;4969063;28;19956;-53
2023/11/03 11:11:02;;;;;;;;;;;12.70;65.00;;;6.99;98.49;93145.59;4965385;28;20008;-52
2023/11/03 11:13:28;;;;;;;;;;;12.80;64.70;;;6.95;97.62;93142.78;4971337;28;19956;-50
2023/11/03 11:15:58;;;;;;;;;;;12.90;64.30;;;7.00;95.31;93136.59;4967377;28;20012;-54
2023/11/03 11:18:30;;;;;;;;;;;13.00;64.00;;;7.14;96.25;93140.72;4963407;28;19909;-55
2023/11/03 11:21:06;;;;;;;;;;;13.10;64.70;;;7.17;92.79;93140.13;4967703;28;19921;-51
2023/11/03 11:23:44;;;;;;;;;;;13.10;63.70;;;7.27;92.87;93136.47;4969574;28;19914;-50